Time;durP1;ratioP1;P1;durP2;ratioP2;P2;SDS_P1;SDS_P2;PMS_P1;PMS_P2;Temp;Humidity;BMP_temperature;BMP_pressure;BME280_temperature;BME280_humidity;BME280_pressure;Samples;Min_cycle;Max_cycle;Signal;HPM_P1;HPM_P2
2022/01/08 00:00:50;;;;;;;6.28;1.63;;;;;;;12.04;48.09;100799.22;4958210;28;20110;-67
2022/01/08 00:03:15;;;;;;;10.73;1.67;;;;;;;12.04;47.88;100798.38;4956862;29;20407;-66
2022/01/08 00:05:41;;;;;;;6.75;1.42;;;;;;;12.02;47.48;100801.22;4956909;29;20039;-66
2022/01/08 00:08:06;;;;;;;3.38;1.35;;;;;;;12.01;47.91;100804.88;4956671;29;20035;-67
2022/01/08 00:10:32;;;;;;;3.28;1.42;;;;;;;11.99;48.27;100801.50;4939604;29;20049;-66
2022/01/08 00:13:01;;;;;;;3.17;1.27;;;;;;;11.98;47.35;100809.66;4956551;29;20059;-67
2022/01/08 00:15:27;;;;;;;6.43;1.55;;;;;;;11.96;48.02;100811.66;4956541;29;20035;-66
2022/01/08 00:17:52;;;;;;;5.85;1.52;;;;;;;11.93;47.60;100806.56;4956584;29;20027;-68
2022/01/08 00:20:17;;;;;;;5.05;1.60;;;;;;;11.89;47.86;100814.03;4956585;29;20043;-67
2022/01/08 00:22:43;;;;;;;3.72;1.83;;;;;;;11.85;48.25;100809.94;4939233;29;20023;-66
2022/01/08 00:25:09;;;;;;;2.50;1.38;;;;;;;11.83;47.74;100811.91;4956392;29;20031;-66
2022/01/08 00:27:34;;;;;;;5.78;1.63;;;;;;;11.79;48.24;100823.91;4956309;29;20514;-67
2022/01/08 00:30:00;;;;;;;3.13;1.40;;;;;;;11.76;48.23;100818.81;4957726;28;20039;-66
2022/01/08 00:32:26;;;;;;;3.83;2.30;;;;;;;11.74;47.98;100828.84;4956346;29;20058;-67
2022/01/08 00:34:51;;;;;;;2.72;1.33;;;;;;;11.73;48.05;100826.28;4956312;29;20023;-66
2022/01/08 00:37:17;;;;;;;4.28;1.75;;;;;;;11.69;47.71;100828.41;4923099;29;20407;-66
2022/01/08 00:39:42;;;;;;;4.95;1.90;;;;;;;11.66;47.71;100826.81;4956232;29;20436;-67
2022/01/08 00:42:07;;;;;;;3.63;1.52;;;;;;;11.64;47.83;100834.13;4938950;29;20067;-66
2022/01/08 00:44:33;;;;;;;6.47;1.70;;;;;;;11.61;48.05;100830.88;4956176;29;20038;-66
2022/01/08 00:46:58;;;;;;;4.22;1.85;;;;;;;11.59;47.79;100824.78;4956446;28;20046;-66
2022/01/08 00:49:25;;;;;;;6.05;1.58;;;;;;;11.55;47.58;100834.97;4955833;29;20051;-66
2022/01/08 00:51:51;;;;;;;2.28;1.42;;;;;;;11.54;47.43;100838.63;4955818;29;20035;-66
2022/01/08 00:54:16;;;;;;;5.13;1.80;;;;;;;11.51;47.34;100848.75;4925333;29;20043;-66
2022/01/08 00:56:42;;;;;;;5.25;1.50;;;;;;;11.48;47.89;100854.38;4956469;29;20484;-67
2022/01/08 00:59:07;;;;;;;7.93;1.60;;;;;;;11.45;48.19;100855.50;4939941;29;20062;-66
2022/01/08 01:01:32;;;;;;;5.22;1.63;;;;;;;11.42;47.29;100854.91;4957036;29;20035;-67
2022/01/08 01:03:58;;;;;;;2.95;1.25;;;;;;;11.38;47.80;100865.09;4939939;29;20038;-67
2022/01/08 01:06:23;;;;;;;2.58;1.42;;;;;;;11.35;48.23;100865.34;4956234;28;20523;-66
2022/01/08 01:08:50;;;;;;;7.25;1.58;;;;;;;11.33;47.21;100869.16;4957253;29;20031;-66
2022/01/08 01:11:15;;;;;;;8.23;2.67;;;;;;;11.29;47.97;100865.03;4957101;29;20373;-66
2022/01/08 01:13:41;;;;;;;1.70;1.27;;;;;;;11.27;48.24;100870.53;4956866;29;20043;-66
2022/01/08 01:16:06;;;;;;;5.93;1.30;;;;;;;11.23;47.56;100865.56;4939709;29;20031;-66
2022/01/08 01:18:32;;;;;;;2.63;1.40;;;;;;;11.21;48.03;100862.16;4939519;29;20050;-66
2022/01/08 01:20:58;;;;;;;5.45;1.48;;;;;;;11.18;48.17;100863.28;4956902;29;20031;-66
2022/01/08 01:23:35;;;;;;;4.82;1.40;;;;;;;11.15;47.76;100868.06;4956586;29;20033;-66
2022/01/08 01:26:01;;;;;;;2.33;1.48;;;;;;;11.12;47.82;100863.81;4956590;29;20039;-67
2022/01/08 01:42:12;;;;;;;6.63;1.48;;;;;;;10.96;47.87;100864.28;4941731;29;20086;-66
2022/01/08 01:47:33;;;;;;;5.75;2.15;;;;;;;10.92;47.27;100864.66;4941668;29;20455;-67
2022/01/08 01:49:59;;;;;;;6.97;2.03;;;;;;;10.92;47.66;100867.34;4956229;29;20051;-66
2022/01/08 01:52:25;;;;;;;3.10;1.92;;;;;;;10.89;47.59;100876.47;4956088;29;20471;-65
2022/01/08 01:54:50;;;;;;;3.20;1.52;;;;;;;10.88;47.78;100874.81;4956116;29;20061;-66
2022/01/08 01:57:17;;;;;;;4.50;1.67;;;;;;;10.87;47.52;100875.78;4956139;29;20031;-66
2022/01/08 01:59:43;;;;;;;3.55;1.80;;;;;;;10.85;47.76;100888.47;4939156;29;20027;-66
2022/01/08 02:02:09;;;;;;;4.57;2.03;;;;;;;10.84;47.61;100892.09;4938969;29;20028;-65
2022/01/08 02:04:34;;;;;;;8.13;1.67;;;;;;;10.83;47.89;100892.25;4955951;29;20396;-66
2022/01/08 02:07:00;;;;;;;1.65;1.40;;;;;;;10.80;47.63;100889.81;4955956;29;20042;-66
2022/01/08 02:09:25;;;;;;;5.32;1.50;;;;;;;10.79;47.71;100885.44;4938727;29;20031;-65
2022/01/08 02:12:07;;;;;;;3.80;1.77;;;;;;;10.78;48.11;100884.56;4955758;29;20114;-67
2022/01/08 02:14:35;;;;;;;4.68;2.47;;;;;;;10.76;47.90;100883.88;4955972;29;20058;-65
2022/01/08 02:17:04;;;;;;;4.68;2.42;;;;;;;10.74;47.59;100872.44;4955410;28;20027;-67
2022/01/08 02:19:29;;;;;;;1.98;1.33;;;;;;;10.72;48.01;100877.06;4955154;29;20027;-65
2022/01/08 02:21:57;;;;;;;2.75;1.75;;;;;;;10.70;47.70;100873.66;4938495;29;20023;-66
2022/01/08 02:24:24;;;;;;;5.45;1.77;;;;;;;10.68;48.12;100878.31;4955667;29;20019;-66
2022/01/08 02:26:49;;;;;;;7.03;1.75;;;;;;;10.68;47.29;100886.34;4955554;29;20035;-66
2022/01/08 02:29:17;;;;;;;6.70;2.40;;;;;;;10.66;47.93;100895.50;4938475;29;20395;-66
2022/01/08 02:32:04;;;;;;;3.47;1.90;;;;;;;10.64;47.90;100889.38;4938330;29;20078;-66
2022/01/08 02:34:30;;;;;;;10.68;2.58;;;;;;;10.62;47.65;100892.22;4955662;29;20023;-66
2022/01/08 02:36:56;;;;;;;10.77;3.30;;;;;;;10.57;47.55;100889.06;4955455;29;20558;-66
2022/01/08 02:39:22;;;;;;;6.72;2.08;;;;;;;10.57;48.03;100894.44;4938265;29;20055;-66
2022/01/08 02:41:47;;;;;;;4.15;2.08;;;;;;;10.55;47.90;100896.38;4955463;29;20054;-65
2022/01/08 02:44:14;;;;;;;10.68;2.75;;;;;;;10.51;47.80;100905.63;4955570;29;20033;-66
2022/01/08 02:46:40;;;;;;;8.70;2.53;;;;;;;10.45;48.05;100904.31;4938204;29;20023;-66
2022/01/08 02:49:06;;;;;;;9.88;2.35;;;;;;;10.43;48.34;100895.56;4955302;29;20043;-66
2022/01/08 02:51:34;;;;;;;6.93;2.90;;;;;;;10.42;48.00;100901.03;4938221;29;20433;-66
2022/01/08 02:54:00;;;;;;;5.20;2.67;;;;;;;10.40;48.04;100913.72;4938157;29;20035;-65
2022/01/08 02:56:25;;;;;;;9.77;3.05;;;;;;;10.39;47.86;100918.22;4955220;29;20035;-66
2022/01/08 02:58:50;;;;;;;6.90;3.35;;;;;;;10.38;47.81;100913.00;4955155;29;20106;-65
2022/01/08 03:01:16;;;;;;;14.27;3.28;;;;;;;10.37;48.33;100924.66;4922221;29;20058;-66
2022/01/08 03:03:41;;;;;;;8.18;3.05;;;;;;;10.37;48.21;100930.03;4955133;29;20162;-66
2022/01/08 03:06:06;;;;;;;5.63;3.53;;;;;;;10.35;48.07;100926.63;4955224;29;20114;-66
2022/01/08 03:08:32;;;;;;;8.27;3.47;;;;;;;10.33;48.29;100923.25;4955221;29;20069;-65
2022/01/08 03:10:57;;;;;;;12.80;3.70;;;;;;;10.34;48.01;100916.88;4938112;29;20039;-66
2022/01/08 03:13:22;;;;;;;10.40;3.50;;;;;;;10.34;48.12;100922.25;4954992;29;20122;-65
2022/01/08 03:15:48;;;;;;;6.03;3.70;;;;;;;10.33;47.91;100928.59;4955071;29;20484;-66
2022/01/08 03:18:13;;;;;;;8.70;3.50;;;;;;;10.32;47.96;100921.53;4955050;29;20449;-67
2022/01/08 03:20:47;;;;;;;9.13;3.00;;;;;;;10.33;48.21;100933.94;4937884;29;20054;-66
2022/01/08 03:23:15;;;;;;;6.55;3.38;;;;;;;10.28;47.96;100926.28;4939098;29;20046;-66
2022/01/08 03:25:41;;;;;;;4.80;3.60;;;;;;;10.26;48.25;100927.38;4923321;29;20484;-66
2022/01/08 03:28:07;;;;;;;9.27;3.35;;;;;;;10.23;48.24;100935.66;4937869;29;20112;-65
2022/01/08 03:30:34;;;;;;;6.00;4.22;;;;;;;10.21;47.97;100926.91;4958063;28;20400;-65
2022/01/08 03:32:59;;;;;;;9.80;3.70;;;;;;;10.21;48.50;100914.38;4958695;29;20038;-67
2022/01/08 03:35:25;;;;;;;6.28;3.03;;;;;;;10.26;48.11;100919.34;4958638;29;20031;-66
2022/01/08 03:37:50;;;;;;;7.70;3.30;;;;;;;10.26;48.12;100927.38;4958599;29;20111;-66
2022/01/08 03:40:17;;;;;;;7.50;2.53;;;;;;;10.26;48.08;100922.00;4958493;29;20469;-68
2022/01/08 03:42:42;;;;;;;5.65;2.65;;;;;;;10.27;48.15;100929.09;4941340;29;20123;-66
2022/01/08 03:45:08;;;;;;;7.15;3.53;;;;;;;10.29;47.23;100932.47;4941545;28;20118;-66
2022/01/08 03:50:13;;;;;;;6.25;3.13;;;;;;;10.30;48.32;100939.53;4958311;29;20067;-66
2022/01/08 03:52:39;;;;;;;7.10;3.03;;;;;;;10.29;48.11;100948.53;4958448;29;20460;-67
2022/01/08 03:55:04;;;;;;;14.30;4.18;;;;;;;10.30;48.05;100939.53;4941233;29;20480;-65
2022/01/08 03:57:30;;;;;;;7.07;3.30;;;;;;;10.29;48.08;100935.16;4941005;29;20065;-66
2022/01/08 03:59:55;;;;;;;11.38;3.03;;;;;;;10.29;48.12;100937.84;4958251;29;20400;-66
2022/01/08 04:02:20;;;;;;;13.05;3.22;;;;;;;10.30;48.09;100947.56;4958073;29;20057;-66
2022/01/08 04:04:48;;;;;;;10.77;3.00;;;;;;;10.29;48.21;100946.72;4958142;29;20089;-66
2022/01/08 04:07:13;;;;;;;10.38;3.45;;;;;;;10.30;47.79;100940.38;4958066;29;20031;-66
2022/01/08 04:09:39;;;;;;;10.63;3.97;;;;;;;10.27;48.06;100939.78;4958257;29;20039;-66
2022/01/08 04:12:06;;;;;;;3.25;2.40;;;;;;;10.27;48.10;100945.16;4957971;29;20071;-66
2022/01/08 04:14:41;;;;;;;8.25;2.95;;;;;;;10.26;48.00;100948.78;4957973;29;20032;-65
2022/01/08 04:17:07;;;;;;;9.88;2.88;;;;;;;10.23;48.02;100949.03;4942505;29;20069;-66
2022/01/08 04:19:33;;;;;;;6.88;3.10;;;;;;;10.22;47.98;100958.03;4957801;29;20054;-66
2022/01/08 04:22:10;;;;;;;7.50;2.45;;;;;;;10.20;47.92;100962.66;4957713;29;20039;-67
2022/01/08 04:24:36;;;;;;;8.02;3.25;;;;;;;10.20;47.84;100951.94;4957702;29;20031;-67
2022/01/08 04:27:01;;;;;;;10.75;2.83;;;;;;;10.20;48.34;100954.63;4957763;29;20065;-66
2022/01/08 04:29:27;;;;;;;7.47;3.05;;;;;;;10.20;48.11;100949.28;4957687;29;20456;-66
2022/01/08 04:31:52;;;;;;;8.63;4.03;;;;;;;10.19;47.84;100958.31;4957585;29;20037;-65
2022/01/08 04:34:18;;;;;;;6.63;2.92;;;;;;;10.18;48.36;100961.94;4957575;29;20031;-66
2022/01/08 04:36:43;;;;;;;7.25;2.85;;;;;;;10.18;48.32;100953.91;4957828;29;20059;-65
2022/01/08 04:39:08;;;;;;;8.25;3.35;;;;;;;10.17;48.84;100960.22;4940343;29;20062;-66
2022/01/08 04:41:34;;;;;;;8.50;3.28;;;;;;;10.15;47.53;100956.84;4939304;29;20555;-66
2022/01/08 04:43:59;;;;;;;8.05;3.47;;;;;;;10.14;48.24;100960.47;4940445;29;20081;-65
2022/01/08 04:46:24;;;;;;;7.65;3.15;;;;;;;10.11;48.09;100958.00;4957740;28;20046;-65
2022/01/08 04:48:50;;;;;;;27.65;4.93;;;;;;;10.10;47.89;100964.34;4957225;29;20147;-66
2022/01/08 04:51:15;;;;;;;9.98;4.15;;;;;;;10.08;48.22;100966.31;4940120;29;20035;-66
2022/01/08 04:53:41;;;;;;;8.43;4.18;;;;;;;10.07;48.38;100969.94;4957089;29;20042;-65
2022/01/08 04:56:06;;;;;;;6.30;3.70;;;;;;;10.07;48.47;100977.97;4939785;29;20039;-66
2022/01/08 04:58:32;;;;;;;9.25;3.13;;;;;;;10.06;47.79;100978.94;4956941;29;20403;-65
2022/01/08 05:00:58;;;;;;;9.75;3.40;;;;;;;10.04;47.96;100986.25;4957159;29;20468;-65
2022/01/08 05:03:23;;;;;;;8.10;3.45;;;;;;;10.00;48.06;100984.78;4956830;29;20034;-65
2022/01/08 05:05:49;;;;;;;10.30;3.50;;;;;;;9.99;48.04;100985.75;4956966;29;20507;-66
2022/01/08 05:08:14;;;;;;;5.28;2.78;;;;;;;9.98;48.13;100992.09;4957000;29;20035;-66
2022/01/08 05:10:39;;;;;;;16.63;3.75;;;;;;;9.94;48.09;100984.28;4956833;29;20038;-66
2022/01/08 05:13:05;;;;;;;6.25;3.70;;;;;;;9.94;48.01;101000.34;4956680;29;20035;-66
2022/01/08 05:15:32;;;;;;;6.97;3.30;;;;;;;9.93;47.99;101005.84;4957015;29;20597;-66
2022/01/08 05:17:57;;;;;;;4.65;3.40;;;;;;;9.92;47.35;101013.00;4939496;29;20031;-65
2022/01/08 05:20:24;;;;;;;9.68;3.22;;;;;;;9.91;48.30;101016.63;4939465;29;20444;-66
2022/01/08 05:22:59;;;;;;;8.85;3.08;;;;;;;9.89;47.97;101018.59;4956772;29;20039;-65
2022/01/08 05:25:25;;;;;;;5.75;3.78;;;;;;;9.88;48.13;101019.56;4956695;29;20034;-66
2022/01/08 05:27:50;;;;;;;9.00;3.33;;;;;;;9.89;48.12;101015.06;4956573;29;20094;-66
2022/01/08 05:30:18;;;;;;;7.07;2.78;;;;;;;9.87;48.21;101020.53;4956525;29;20035;-65
2022/01/08 05:32:44;;;;;;;6.28;3.45;;;;;;;9.86;48.03;101026.84;4939013;29;20027;-65
2022/01/08 05:35:10;;;;;;;3.75;2.63;;;;;;;9.82;48.34;101024.56;4939359;29;20173;-65
2022/01/08 05:37:35;;;;;;;5.38;3.30;;;;;;;9.81;47.63;101021.03;4923187;29;20031;-66
2022/01/08 05:40:00;;;;;;;8.85;3.33;;;;;;;9.80;48.35;101029.16;4956143;29;20035;-66
2022/01/08 05:42:26;;;;;;;8.52;3.30;;;;;;;9.80;48.38;101021.97;4938936;29;20498;-65
2022/01/08 05:44:51;;;;;;;11.02;3.03;;;;;;;9.81;48.35;101020.16;4956206;29;20420;-65
2022/01/08 05:47:17;;;;;;;4.93;2.90;;;;;;;9.80;48.11;101011.28;4956082;28;20118;-66
2022/01/08 05:49:42;;;;;;;10.10;3.33;;;;;;;9.79;48.25;101016.75;4955927;29;20531;-65
2022/01/08 05:52:08;;;;;;;14.38;3.58;;;;;;;9.80;48.35;101016.63;4955820;28;20035;-65
2022/01/08 05:54:34;;;;;;;15.20;2.75;;;;;;;9.81;47.75;101010.31;4955979;29;20081;-65
2022/01/08 05:56:59;;;;;;;8.00;3.13;;;;;;;9.80;48.07;100994.38;4956012;29;20058;-66
2022/01/08 05:59:26;;;;;;;8.82;3.60;;;;;;;9.79;48.47;101006.91;4956079;29;20039;-65
2022/01/08 06:01:53;;;;;;;10.93;3.58;;;;;;;9.78;48.74;101007.03;4956014;29;20078;-64
2022/01/08 06:04:18;;;;;;;6.35;3.83;;;;;;;9.76;48.50;101020.53;4955978;29;20400;-66
2022/01/08 06:06:44;;;;;;;5.93;3.60;;;;;;;9.76;48.39;101020.53;4955733;29;20035;-66
2022/01/08 06:09:09;;;;;;;10.63;3.72;;;;;;;9.74;48.50;101019.78;4939030;29;20472;-65
2022/01/08 06:11:35;;;;;;;9.18;4.13;;;;;;;9.75;48.48;101023.31;4938640;29;20043;-65
2022/01/08 06:14:02;;;;;;;10.57;5.25;;;;;;;9.75;48.52;101025.97;4955860;29;20452;-67
2022/01/08 06:16:33;;;;;;;6.47;3.85;;;;;;;9.75;48.19;101034.88;4955550;29;20508;-66
2022/01/08 06:18:58;;;;;;;10.00;4.10;;;;;;;9.75;48.38;101037.53;4955585;29;20106;-66
2022/01/08 06:21:24;;;;;;;8.68;4.22;;;;;;;9.74;48.55;101049.19;4955726;29;20057;-65
2022/01/08 06:23:49;;;;;;;12.02;4.70;;;;;;;9.72;48.33;101045.78;4922823;29;20031;-65
2022/01/08 06:26:14;;;;;;;7.15;4.28;;;;;;;9.72;48.34;101051.16;4955476;29;20027;-67
2022/01/08 06:28:40;;;;;;;11.68;4.15;;;;;;;9.73;48.55;101043.97;4955561;29;20027;-66
2022/01/08 06:31:05;;;;;;;10.43;5.07;;;;;;;9.74;48.56;101046.53;4955839;29;20026;-66
2022/01/08 06:33:31;;;;;;;11.43;4.63;;;;;;;9.75;48.82;101044.69;4955277;29;20055;-65
2022/01/08 06:35:56;;;;;;;10.40;4.18;;;;;;;9.75;48.49;101044.69;4955397;29;20034;-66
2022/01/08 06:38:21;;;;;;;9.73;3.95;;;;;;;9.75;48.35;101044.69;4955343;29;20050;-64
2022/01/08 06:40:47;;;;;;;12.93;4.95;;;;;;;9.76;48.17;101046.41;4938060;29;20092;-66
2022/01/08 06:43:12;;;;;;;12.80;5.28;;;;;;;9.77;48.17;101058.84;4955259;29;20069;-66
2022/01/08 06:45:38;;;;;;;6.97;4.10;;;;;;;9.78;48.13;101053.34;4955551;28;20046;-66
2022/01/08 06:48:03;;;;;;;12.80;4.80;;;;;;;9.80;47.99;101054.06;4938223;29;20384;-66
2022/01/08 06:50:29;;;;;;;12.68;5.80;;;;;;;9.78;48.57;101056.03;4954956;29;20051;-65
2022/01/08 06:52:55;;;;;;;13.00;4.88;;;;;;;9.80;48.71;101054.06;4954970;29;20035;-65
2022/01/08 06:55:21;;;;;;;14.07;4.93;;;;;;;9.80;48.67;101054.06;4937816;29;20388;-66
2022/01/08 06:57:46;;;;;;;12.80;4.90;;;;;;;9.80;48.71;101043.38;4937840;29;20027;-65
2022/01/08 07:00:12;;;;;;;14.20;5.00;;;;;;;9.81;48.66;101038.88;4955170;29;20034;-65
2022/01/08 07:02:37;;;;;;;15.23;5.10;;;;;;;9.78;48.17;101034.63;4955283;29;20480;-65
2022/01/08 07:05:03;;;;;;;8.98;4.53;;;;;;;9.77;48.93;101045.47;4940097;29;20476;-65
2022/01/08 07:07:28;;;;;;;13.48;5.00;;;;;;;9.75;48.62;101047.38;4959254;29;20468;-66
2022/01/08 07:09:54;;;;;;;12.18;5.43;;;;;;;9.73;48.66;101042.16;4958981;29;20051;-66
2022/01/08 07:12:19;;;;;;;16.63;6.43;;;;;;;9.70;48.26;101033.50;4958879;29;20030;-65
2022/01/08 07:14:44;;;;;;;12.93;5.35;;;;;;;9.68;48.37;101039.00;4941893;29;20030;-65
2022/01/08 07:17:10;;;;;;;19.33;6.10;;;;;;;9.69;48.42;101046.03;4958898;29;20058;-65
2022/01/08 07:19:35;;;;;;;9.80;5.57;;;;;;;9.67;48.01;101036.44;4959046;29;20369;-66
2022/01/08 07:22:00;;;;;;;12.43;5.40;;;;;;;9.68;48.49;101040.81;4958886;29;20034;-66
2022/01/08 07:24:26;;;;;;;11.93;5.53;;;;;;;9.66;48.76;101040.91;4958923;29;20086;-66
2022/01/08 07:26:51;;;;;;;12.35;5.78;;;;;;;9.65;48.57;101044.59;4958796;29;20035;-66
2022/01/08 07:29:16;;;;;;;14.48;5.35;;;;;;;9.63;48.41;101041.16;4941534;29;20516;-66
2022/01/08 07:31:42;;;;;;;13.50;5.93;;;;;;;9.65;48.47;101044.59;4958728;29;20567;-66
2022/01/08 07:34:07;;;;;;;12.15;5.35;;;;;;;9.66;48.46;101045.44;4958586;29;20035;-65
2022/01/08 07:36:33;;;;;;;13.57;5.70;;;;;;;9.65;49.20;101039.22;4941937;29;20042;-66
2022/01/08 07:38:58;;;;;;;13.85;6.05;;;;;;;9.69;48.71;101046.03;4958564;29;20035;-65
2022/01/08 07:41:23;;;;;;;15.05;5.80;;;;;;;9.72;48.88;101048.47;4958465;29;20400;-66
2022/01/08 07:43:49;;;;;;;15.10;6.95;;;;;;;9.72;49.29;101042.25;4958600;29;20400;-66
2022/01/08 07:46:14;;;;;;;17.50;6.53;;;;;;;9.73;48.61;101042.16;4958848;28;20031;-66
2022/01/08 07:48:40;;;;;;;13.93;6.75;;;;;;;9.74;49.03;101048.38;4958572;29;20491;-66
2022/01/08 07:51:06;;;;;;;19.10;6.13;;;;;;;9.75;48.54;101039.34;4958235;29;20038;-66
2022/01/08 07:53:31;;;;;;;17.73;6.45;;;;;;;9.77;49.28;101040.13;4941046;29;20447;-66
2022/01/08 07:55:57;;;;;;;17.38;6.07;;;;;;;9.82;48.73;101043.28;4940971;29;20159;-65
2022/01/08 07:58:22;;;;;;;15.80;6.72;;;;;;;9.84;49.02;101039.50;4958389;29;20035;-66
2022/01/08 08:00:48;;;;;;;13.50;6.40;;;;;;;9.86;48.83;101040.22;4958291;29;20039;-66
2022/01/08 08:03:14;;;;;;;19.75;7.13;;;;;;;9.88;48.75;101040.94;4958251;29;20527;-66
2022/01/08 08:05:39;;;;;;;13.23;7.43;;;;;;;9.91;48.66;101035.38;4940821;29;20102;-66
2022/01/08 08:08:05;;;;;;;17.63;6.78;;;;;;;9.99;49.20;101036.59;4957927;29;20114;-66
2022/01/08 08:10:31;;;;;;;14.43;7.10;;;;;;;10.04;48.48;101037.09;4957907;29;20031;-66
2022/01/08 08:12:56;;;;;;;17.23;7.22;;;;;;;10.08;49.03;101033.22;4957664;29;20055;-66
2022/01/08 08:15:23;;;;;;;23.20;7.60;;;;;;;10.12;48.68;101023.94;4957611;28;20126;-66
2022/01/08 08:17:48;;;;;;;19.67;7.55;;;;;;;10.13;48.84;101020.34;4940438;29;20023;-66
2022/01/08 08:20:14;;;;;;;19.88;7.60;;;;;;;10.14;48.67;101014.00;4957688;29;20023;-66
2022/01/08 08:22:40;;;;;;;22.08;7.60;;;;;;;10.14;48.51;101014.84;4957591;29;20027;-66
2022/01/08 08:25:07;;;;;;;19.55;6.78;;;;;;;10.14;48.58;101003.28;4957793;29;20480;-66
2022/01/08 08:27:32;;;;;;;13.65;5.90;;;;;;;10.17;48.95;101001.22;4940691;29;20392;-66
2022/01/08 08:29:58;;;;;;;18.50;6.72;;;;;;;10.17;48.71;100995.03;4957726;29;20053;-66
2022/01/08 08:32:23;;;;;;;23.80;6.90;;;;;;;10.18;49.06;100999.41;4957496;29;20114;-66
2022/01/08 08:34:50;;;;;;;21.40;7.03;;;;;;;10.19;48.72;100993.09;4957647;29;20031;-65
2022/01/08 08:37:16;;;;;;;25.48;8.05;;;;;;;10.22;48.74;100995.50;4957926;29;20373;-66
2022/01/08 08:39:41;;;;;;;15.38;6.40;;;;;;;10.25;48.55;100997.94;4957462;29;20042;-66
2022/01/08 08:42:07;;;;;;;18.75;6.90;;;;;;;10.24;48.97;100998.94;4940178;29;20082;-66
2022/01/08 08:44:34;;;;;;;24.20;7.63;;;;;;;10.29;48.68;100994.06;4957680;29;20051;-65
2022/01/08 08:46:59;;;;;;;16.75;6.57;;;;;;;10.32;49.28;100999.16;4924622;29;20105;-66
2022/01/08 08:49:26;;;;;;;20.60;7.80;;;;;;;10.34;48.78;100999.88;4957300;29;20056;-65
2022/01/08 08:51:51;;;;;;;18.27;7.40;;;;;;;10.38;49.04;100998.69;4957183;29;20117;-65
2022/01/08 08:54:16;;;;;;;20.88;7.30;;;;;;;10.44;48.88;100998.19;4957449;29;20142;-66
2022/01/08 08:56:42;;;;;;;22.15;7.78;;;;;;;10.48;48.32;100992.44;4957212;29;20031;-66
2022/01/08 08:59:09;;;;;;;14.52;6.25;;;;;;;10.54;49.17;100985.75;4940302;29;20102;-66
2022/01/08 09:01:34;;;;;;;18.88;7.53;;;;;;;10.60;48.61;100995.09;4940137;29;20031;-65
2022/01/08 09:04:00;;;;;;;13.98;6.03;;;;;;;10.63;49.00;100992.16;4940086;29;20086;-66
2022/01/08 09:06:26;;;;;;;17.63;7.35;;;;;;;10.68;49.04;100998.00;4956927;29;20094;-65
2022/01/08 09:08:52;;;;;;;14.77;6.28;;;;;;;10.75;49.10;101002.72;4957153;29;20057;-65
2022/01/08 09:11:17;;;;;;;15.95;6.07;;;;;;;10.80;48.41;100995.19;4957113;29;20155;-65
2022/01/08 09:13:43;;;;;;;14.68;6.35;;;;;;;10.86;48.44;101000.00;4956801;29;20060;-65
2022/01/08 09:16:09;;;;;;;15.93;6.47;;;;;;;10.89;48.79;100991.72;4957158;29;20035;-66
2022/01/08 09:18:34;;;;;;;19.92;6.65;;;;;;;10.96;48.94;100998.28;4957228;29;20034;-65
2022/01/08 09:21:00;;;;;;;14.20;5.43;;;;;;;11.02;47.95;101011.19;4938933;29;20039;-66
2022/01/08 09:23:25;;;;;;;15.48;6.40;;;;;;;11.03;48.15;100994.09;4956700;29;20027;-65
2022/01/08 09:25:50;;;;;;;14.20;6.07;;;;;;;11.05;48.38;100994.81;4956700;29;20114;-66
2022/01/08 09:28:16;;;;;;;17.67;5.90;;;;;;;11.08;49.01;100997.25;4956092;28;20400;-66
2022/01/08 09:30:41;;;;;;;15.77;5.43;;;;;;;11.08;47.53;100988.38;4939358;29;20035;-66
2022/01/08 09:33:06;;;;;;;13.43;5.00;;;;;;;11.10;48.18;100995.31;4956433;29;20122;-66
2022/01/08 09:35:32;;;;;;;9.60;4.43;;;;;;;11.16;48.47;100987.72;4956487;29;20031;-66
2022/01/08 09:37:57;;;;;;;16.30;5.43;;;;;;;11.26;48.66;100980.59;4956593;29;20480;-65
2022/01/08 09:40:23;;;;;;;15.45;4.78;;;;;;;11.34;48.03;100980.78;4939569;29;20059;-66
2022/01/08 09:42:50;;;;;;;13.50;4.28;;;;;;;11.38;48.32;100971.50;4939363;29;20086;-66
2022/01/08 09:45:15;;;;;;;9.75;4.80;;;;;;;11.43;47.92;100969.28;4956058;28;20034;-65
2022/01/08 09:47:41;;;;;;;16.52;5.07;;;;;;;11.44;48.48;100957.59;4939104;29;20031;-66
2022/01/08 09:50:07;;;;;;;16.77;5.03;;;;;;;11.44;47.55;100955.75;4949634;29;20488;-65
2022/01/08 09:52:33;;;;;;;7.93;4.13;;;;;;;11.46;48.48;100960.97;4956399;28;20086;-65
2022/01/08 09:54:58;;;;;;;11.38;4.78;;;;;;;11.51;47.93;100950.69;4956029;29;20035;-66
2022/01/08 09:57:24;;;;;;;15.00;4.97;;;;;;;11.52;47.62;100947.03;4956308;29;20031;-66
2022/01/08 09:59:50;;;;;;;9.30;4.53;;;;;;;11.51;47.92;100942.66;4956077;29;20447;-66
2022/01/08 10:02:20;;;;;;;10.50;4.80;;;;;;;11.54;48.25;100931.66;4955967;29;20028;-66
2022/01/08 10:04:45;;;;;;;8.88;4.75;;;;;;;11.55;47.93;100925.31;4955963;28;20034;-66
2022/01/08 10:07:24;;;;;;;10.98;5.20;;;;;;;11.57;47.79;100926.03;4955887;29;20031;-66
2022/01/08 10:10:10;;;;;;;14.70;5.07;;;;;;;11.59;48.06;100916.84;4955891;29;20043;-67
2022/01/08 10:12:46;;;;;;;10.98;4.60;;;;;;;11.59;47.59;100900.75;4955759;28;20027;-65
2022/01/08 10:17:58;;;;;;;9.25;4.53;;;;;;;11.64;48.18;100897.69;4955866;29;20061;-66
2022/01/08 10:20:32;;;;;;;12.55;4.82;;;;;;;11.65;47.70;100888.66;4954323;29;20019;-66
2022/01/08 10:23:15;;;;;;;11.38;4.50;;;;;;;11.66;47.27;100874.25;4955685;28;20027;-66
2022/01/08 10:25:59;;;;;;;10.98;4.35;;;;;;;11.67;47.42;100875.94;4954450;29;20480;-66
2022/01/08 10:28:33;;;;;;;9.02;4.43;;;;;;;11.64;48.03;100871.69;4955895;29;20129;-66
2022/01/08 10:31:09;;;;;;;8.13;3.78;;;;;;;11.60;47.74;100866.75;4955468;28;20027;-66
2022/01/08 10:33:34;;;;;;;10.85;4.00;;;;;;;11.57;48.01;100856.28;4955441;28;20042;-67
2022/01/08 10:35:59;;;;;;;8.15;3.70;;;;;;;11.55;47.90;100851.06;4955505;28;20031;-66
2022/01/08 10:38:29;;;;;;;8.40;3.97;;;;;;;11.55;48.22;100839.47;4953650;28;20038;-66
2022/01/08 10:40:55;;;;;;;9.32;3.50;;;;;;;11.55;47.99;100831.44;4955263;28;20028;-66
2022/01/08 10:43:26;;;;;;;11.07;3.33;;;;;;;11.56;47.93;100822.38;4955716;29;20031;-66
2022/01/08 10:45:56;;;;;;;8.60;3.03;;;;;;;11.52;47.88;100823.66;4955565;28;20031;-66
2022/01/08 10:48:30;;;;;;;8.68;3.00;;;;;;;11.49;47.84;100823.91;4955570;29;20489;-66
2022/01/08 10:51:13;;;;;;;4.88;2.47;;;;;;;11.47;47.90;100809.81;4955344;29;20040;-66
2022/01/08 10:53:54;;;;;;;16.30;2.90;;;;;;;11.49;48.15;100813.19;4955053;28;20023;-66
2022/01/08 10:56:46;;;;;;;11.43;3.47;;;;;;;11.48;47.35;100800.75;4954424;29;20400;-66
2022/01/08 10:59:14;;;;;;;8.20;2.65;;;;;;;11.49;47.46;100786.38;4955423;28;20113;-66
2022/01/08 11:01:47;;;;;;;7.35;3.17;;;;;;;11.53;47.12;100779.75;4955093;29;20027;-67
2022/01/08 11:04:18;;;;;;;9.18;2.80;;;;;;;11.50;47.72;100758.56;4954267;29;20035;-66
2022/01/08 11:06:55;;;;;;;10.23;2.42;;;;;;;11.48;47.12;100752.47;4955003;29;20035;-66
2022/01/08 11:09:21;;;;;;;5.05;2.78;;;;;;;11.46;47.54;100751.75;4955489;29;20465;-66
2022/01/08 11:11:47;;;;;;;5.35;3.15;;;;;;;11.47;47.46;100751.63;4953828;29;20046;-67
2022/01/08 11:14:24;;;;;;;7.85;2.63;;;;;;;11.48;47.60;100739.91;4955343;28;20027;-67
2022/01/08 11:16:54;;;;;;;4.93;2.38;;;;;;;11.47;47.87;100735.53;4954713;29;20544;-67
2022/01/08 11:19:19;;;;;;;6.65;2.42;;;;;;;11.46;47.41;100727.63;4953874;29;20547;-67
2022/01/08 11:21:47;;;;;;;4.07;2.20;;;;;;;11.47;47.72;100734.69;4954740;29;20043;-66
2022/01/08 11:24:13;;;;;;;8.40;2.72;;;;;;;11.50;47.63;100735.25;4954848;29;20038;-66
2022/01/08 11:26:38;;;;;;;4.18;2.47;;;;;;;11.55;47.85;100729.50;4953850;29;20036;-67
2022/01/08 11:29:04;;;;;;;4.65;2.28;;;;;;;11.58;47.13;100721.16;4953769;29;20055;-66
2022/01/08 11:31:32;;;;;;;5.05;2.22;;;;;;;11.62;47.06;100714.53;4953720;29;20480;-67
2022/01/08 11:34:02;;;;;;;4.93;2.55;;;;;;;11.68;47.34;100703.25;4953504;29;20091;-67
2022/01/08 11:36:30;;;;;;;5.85;2.63;;;;;;;11.72;47.70;100695.81;4954933;28;20078;-67
2022/01/08 11:38:57;;;;;;;4.15;1.95;;;;;;;11.74;47.00;100688.44;4937648;29;20090;-65
2022/01/08 11:41:22;;;;;;;6.45;2.50;;;;;;;11.71;47.89;100676.16;4954743;28;20110;-66
2022/01/08 11:43:50;;;;;;;6.45;1.90;;;;;;;11.75;47.67;100669.56;4954837;29;20110;-66